createdAt,value
2022-10-17T00:00:17.543Z,7.90
2022-10-17T00:02:44.432Z,13.67
2022-10-17T00:05:12.139Z,10.30
2022-10-17T00:07:38.966Z,10.67
2022-10-17T00:10:07.859Z,8.93
2022-10-17T00:12:35.287Z,10.13
2022-10-17T00:15:05.223Z,9.50
2022-10-17T00:17:32.435Z,10.67
2022-10-17T00:20:02.541Z,9.73
2022-10-17T00:22:29.373Z,10.87
2022-10-17T00:24:56.108Z,10.67
2022-10-17T00:27:22.793Z,12.40
2022-10-17T00:29:50.962Z,9.10
2022-10-17T00:32:19.682Z,9.93
2022-10-17T00:34:49.259Z,9.63
2022-10-17T00:37:16.003Z,8.37
2022-10-17T00:39:42.776Z,9.30
2022-10-17T00:42:14.783Z,8.90
2022-10-17T00:44:41.436Z,9.17
2022-10-17T00:47:16.464Z,11.07
2022-10-17T00:49:43.419Z,12.83
2022-10-17T00:52:25.707Z,8.63
2022-10-17T00:55:02.414Z,8.73
2022-10-17T00:57:31.638Z,13.27
2022-10-17T01:00:00.679Z,10.90
2022-10-17T01:02:27.754Z,9.43
2022-10-17T01:04:59.425Z,12.30
2022-10-17T01:07:33.093Z,10.00
2022-10-17T01:10:04.606Z,11.60
2022-10-17T01:12:52.663Z,10.87
2022-10-17T01:15:28.780Z,14.17
2022-10-17T01:18:10.307Z,9.80
2022-10-17T01:20:56.411Z,9.77
2022-10-17T01:23:29.112Z,13.87
2022-10-17T01:26:32.695Z,12.67
2022-10-17T01:29:18.201Z,12.47
2022-10-17T01:31:52.799Z,12.93
2022-10-17T01:34:26.307Z,11.70
2022-10-17T01:37:20.306Z,12.53
2022-10-17T01:40:11.210Z,12.17
2022-10-17T01:42:42.537Z,13.53
2022-10-17T01:45:24.946Z,13.10
2022-10-17T01:47:53.504Z,11.90
2022-10-17T01:50:26.450Z,15.33
2022-10-17T01:52:59.880Z,12.47
2022-10-17T01:55:33.733Z,12.10
2022-10-17T01:58:28.271Z,13.00
2022-10-17T02:00:58.118Z,13.30
2022-10-17T02:03:27.733Z,14.67
2022-10-17T02:05:54.739Z,13.77
2022-10-17T02:08:46.255Z,12.73
2022-10-17T02:11:24.180Z,13.80
2022-10-17T02:13:56.995Z,12.73
2022-10-17T02:16:46.043Z,13.00
2022-10-17T02:19:33.659Z,12.60
2022-10-17T02:22:35.599Z,14.43
2022-10-17T02:25:15.640Z,10.73
2022-10-17T02:27:54.310Z,11.30
2022-10-17T02:30:33.433Z,11.87
2022-10-17T02:33:13.745Z,15.90
2022-10-17T02:35:48.622Z,14.50
2022-10-17T02:38:18.235Z,11.47
2022-10-17T02:40:47.014Z,14.83
2022-10-17T02:43:14.709Z,13.00
2022-10-17T02:45:46.025Z,12.87
2022-10-17T02:48:20.467Z,12.80
2022-10-17T02:50:58.853Z,11.63
2022-10-17T02:53:33.212Z,16.77
2022-10-17T02:56:05.242Z,15.10
2022-10-17T02:58:34.529Z,16.87
2022-10-17T03:01:01.763Z,15.40
2022-10-17T03:03:31.315Z,18.43
2022-10-17T03:05:58.081Z,13.97
2022-10-17T03:08:25.482Z,12.93
2022-10-17T03:10:52.511Z,14.77
2022-10-17T03:13:22.167Z,12.87
2022-10-17T03:15:48.921Z,10.50
2022-10-17T03:18:15.932Z,14.13
2022-10-17T03:20:42.775Z,13.90
2022-10-17T03:23:09.452Z,13.53
2022-10-17T03:25:36.407Z,9.77
2022-10-17T03:28:03.298Z,12.33
2022-10-17T03:30:30.099Z,10.73
2022-10-17T03:33:01.586Z,14.70
2022-10-17T03:35:28.404Z,14.07
2022-10-17T03:37:58.132Z,13.17
2022-10-17T03:40:24.980Z,12.03
2022-10-17T03:42:51.762Z,10.57
2022-10-17T03:45:18.456Z,10.40
2022-10-17T03:47:45.326Z,9.20
2022-10-17T03:50:12.457Z,11.80
2022-10-17T03:52:39.169Z,10.30
2022-10-17T03:55:06.284Z,11.47
2022-10-17T03:57:35.888Z,12.43
2022-10-17T04:00:03.303Z,10.87
2022-10-17T04:02:30.036Z,12.93
2022-10-17T04:04:56.746Z,11.73
2022-10-17T04:07:23.570Z,9.87
2022-10-17T04:09:50.303Z,10.87
2022-10-17T04:12:17.105Z,12.93
2022-10-17T04:14:43.949Z,13.13
2022-10-17T04:17:10.795Z,10.50
2022-10-17T04:19:37.503Z,9.53
2022-10-17T04:22:04.368Z,10.63
2022-10-17T04:24:31.237Z,12.27
2022-10-17T04:26:57.987Z,9.63
2022-10-17T04:29:25.409Z,12.10
2022-10-17T04:31:54.932Z,10.33
2022-10-17T04:34:24.302Z,11.60
2022-10-17T04:36:52.020Z,10.97
2022-10-17T04:39:18.847Z,11.13
2022-10-17T04:41:45.597Z,14.17
2022-10-17T04:44:14.762Z,9.97
2022-10-17T04:46:41.566Z,10.23
2022-10-17T04:49:09.076Z,13.07
2022-10-17T04:51:35.876Z,10.80
2022-10-17T04:54:02.766Z,8.90
2022-10-17T04:56:29.481Z,10.27
2022-10-17T04:58:56.404Z,10.90
2022-10-17T05:01:24.282Z,10.13
2022-10-17T05:03:51.848Z,10.73
2022-10-17T05:06:23.936Z,8.60
2022-10-17T05:08:53.844Z,9.33
2022-10-17T05:11:25.572Z,10.03
2022-10-17T05:14:01.012Z,10.73
2022-10-17T05:16:29.132Z,9.57
2022-10-17T05:18:59.804Z,10.47
2022-10-17T05:21:27.847Z,9.63
2022-10-17T05:23:54.761Z,9.80
2022-10-17T05:26:22.291Z,9.70
2022-10-17T05:28:49.272Z,12.70
2022-10-17T05:31:16.016Z,10.80
2022-10-17T05:33:42.858Z,10.97
2022-10-17T05:36:10.167Z,9.93
2022-10-17T05:38:36.922Z,9.07
2022-10-17T05:41:05.915Z,9.83
2022-10-17T05:43:33.918Z,7.07
2022-10-17T05:46:05.023Z,10.37
2022-10-17T05:48:31.869Z,10.07
2022-10-17T05:51:07.982Z,8.03
2022-10-17T05:53:37.469Z,13.13
2022-10-17T05:56:07.103Z,9.03
2022-10-17T05:58:52.425Z,8.70
2022-10-17T06:01:20.980Z,8.57
2022-10-17T06:03:50.498Z,10.37
2022-10-17T06:06:18.416Z,10.20
2022-10-17T06:08:45.930Z,10.60
2022-10-17T06:11:13.552Z,9.70
2022-10-17T06:13:41.229Z,9.00
2022-10-17T06:16:08.535Z,8.47
2022-10-17T06:18:35.380Z,8.63
2022-10-17T06:21:24.345Z,13.53
2022-10-17T06:23:52.303Z,12.93
2022-10-17T06:26:19.845Z,10.27
2022-10-17T06:28:46.799Z,8.20
2022-10-17T06:31:16.101Z,9.17
2022-10-17T06:33:43.428Z,9.33
2022-10-17T06:36:13.051Z,8.70
2022-10-17T06:38:40.695Z,9.27
2022-10-17T06:41:10.278Z,10.73
2022-10-17T06:43:38.091Z,11.70
2022-10-17T06:46:05.643Z,9.67
2022-10-17T06:48:33.176Z,12.23
2022-10-17T06:51:04.998Z,10.47
2022-10-17T06:53:35.519Z,11.53
2022-10-17T06:56:04.587Z,9.17
2022-10-17T06:58:33.561Z,9.90
2022-10-17T07:01:02.333Z,13.07
2022-10-17T07:03:29.903Z,12.63
2022-10-17T07:05:57.937Z,11.63
2022-10-17T07:08:25.291Z,11.63
2022-10-17T07:10:52.775Z,8.60
2022-10-17T07:13:19.853Z,6.67
2022-10-17T07:15:47.125Z,7.50
2022-10-17T07:18:14.347Z,10.93
2022-10-17T07:20:41.171Z,9.13
2022-10-17T07:23:08.042Z,7.13
2022-10-17T07:25:40.215Z,9.37
2022-10-17T07:28:12.636Z,12.53
2022-10-17T07:30:40.441Z,10.20
2022-10-17T07:33:07.217Z,10.50
2022-10-17T07:35:34.415Z,11.53
2022-10-17T07:38:01.176Z,7.83
2022-10-17T07:40:28.021Z,7.93
2022-10-17T07:42:56.469Z,11.93
2022-10-17T07:45:23.930Z,9.70
2022-10-17T07:47:57.793Z,7.67
2022-10-17T07:50:26.649Z,11.27
2022-10-17T07:52:53.329Z,10.30
2022-10-17T07:55:20.187Z,9.73
2022-10-17T07:57:46.972Z,10.13
2022-10-17T08:00:13.981Z,10.57
2022-10-17T08:02:40.860Z,9.90
2022-10-17T08:05:08.000Z,10.37
2022-10-17T08:07:34.916Z,8.83
2022-10-17T08:10:03.916Z,11.00
2022-10-17T08:12:34.251Z,10.00
2022-10-17T08:15:01.912Z,9.90
2022-10-17T08:17:28.777Z,9.37
2022-10-17T08:19:55.680Z,8.50
2022-10-17T08:22:22.527Z,12.00
2022-10-17T08:24:49.516Z,10.60
2022-10-17T08:27:21.457Z,9.77
2022-10-17T08:29:48.865Z,10.53
2022-10-17T08:32:15.657Z,10.87
2022-10-17T08:34:45.099Z,8.17
2022-10-17T08:37:13.949Z,10.47
2022-10-17T08:39:44.278Z,11.60
2022-10-17T08:42:17.427Z,11.27
2022-10-17T08:44:50.347Z,9.63
2022-10-17T08:47:26.650Z,8.43
2022-10-17T08:49:58.078Z,7.20
2022-10-17T08:52:51.554Z,10.27
2022-10-17T08:55:41.289Z,11.17
2022-10-17T08:58:28.851Z,8.70
2022-10-17T09:01:12.741Z,9.63
2022-10-17T09:03:59.454Z,8.03
2022-10-17T09:06:31.612Z,10.87
2022-10-17T09:09:10.742Z,10.60
2022-10-17T09:11:58.832Z,11.67
2022-10-17T09:15:37.291Z,12.50
2022-10-17T09:18:09.922Z,10.07
2022-10-17T09:20:51.735Z,8.57
2022-10-17T09:23:28.573Z,9.83
2022-10-17T09:25:58.303Z,9.53
2022-10-17T09:28:39.217Z,11.03
2022-10-17T09:31:16.174Z,8.70
2022-10-17T09:33:55.510Z,10.20
2022-10-17T09:36:33.476Z,9.73
2022-10-17T09:39:05.615Z,10.27
2022-10-17T09:41:51.267Z,8.87
2022-10-17T09:44:23.421Z,8.33
2022-10-17T09:46:55.791Z,8.50
2022-10-17T09:49:34.901Z,7.93
2022-10-17T09:52:04.722Z,7.67
2022-10-17T09:54:46.318Z,8.50
2022-10-17T09:57:14.168Z,7.00
2022-10-17T09:59:46.963Z,7.20
2022-10-17T10:02:13.637Z,10.20
2022-10-17T10:05:16.473Z,8.63
2022-10-17T10:08:00.439Z,9.33
2022-10-17T10:10:28.722Z,9.10
2022-10-17T10:13:15.739Z,8.20
2022-10-17T10:15:44.970Z,10.13
2022-10-17T10:18:27.000Z,9.40
2022-10-17T10:21:24.611Z,9.87
2022-10-17T10:24:09.394Z,12.30
2022-10-17T10:26:39.491Z,10.07
2022-10-17T10:29:38.362Z,10.80
2022-10-17T10:32:18.145Z,10.63
2022-10-17T10:34:49.295Z,8.30
2022-10-17T10:37:23.982Z,11.50
2022-10-17T10:39:54.590Z,12.07
2022-10-17T10:42:33.947Z,8.90
2022-10-17T10:45:46.571Z,13.93
2022-10-17T10:48:30.317Z,10.70
2022-10-17T10:51:06.515Z,10.27
2022-10-17T10:53:57.972Z,11.23
2022-10-17T10:56:44.121Z,11.23
2022-10-17T10:59:23.222Z,11.13
2022-10-17T11:02:05.129Z,10.63
2022-10-17T11:04:50.796Z,11.73
2022-10-17T11:07:28.819Z,9.87
2022-10-17T11:10:03.394Z,12.03
2022-10-17T11:12:51.274Z,10.67
2022-10-17T11:15:33.803Z,10.40
2022-10-17T11:18:07.592Z,8.73
2022-10-17T11:20:42.850Z,9.40
2022-10-17T11:23:29.930Z,10.63
2022-10-17T11:26:01.663Z,9.97
2022-10-17T11:28:29.993Z,11.00
2022-10-17T11:31:08.006Z,11.23
2022-10-17T11:33:51.195Z,12.47
2022-10-17T11:36:22.279Z,8.57
2022-10-17T11:38:53.470Z,11.47
2022-10-17T11:41:55.584Z,9.30
2022-10-17T11:44:36.173Z,9.57
2022-10-17T11:47:27.296Z,11.17
2022-10-17T11:53:13.281Z,10.97
2022-10-17T11:55:41.910Z,12.40
2022-10-17T12:01:06.966Z,10.97
2022-10-17T12:03:45.743Z,11.20
2022-10-17T12:06:34.096Z,12.23
2022-10-17T12:09:03.606Z,9.90
2022-10-17T12:11:42.349Z,8.90
2022-10-17T12:14:33.837Z,11.60
2022-10-17T12:17:01.679Z,11.27
2022-10-17T12:19:34.394Z,11.77
2022-10-17T12:22:13.016Z,10.97
2022-10-17T12:24:45.420Z,13.57
2022-10-17T12:27:36.264Z,9.77
2022-10-17T12:30:26.872Z,11.90
2022-10-17T12:33:06.548Z,11.40
2022-10-17T12:35:38.776Z,10.30
2022-10-17T12:38:23.723Z,10.37
2022-10-17T12:40:55.564Z,11.17
2022-10-17T12:43:28.044Z,11.83
2022-10-17T12:45:59.202Z,10.37
2022-10-17T12:49:00.154Z,13.97
2022-10-17T12:51:35.685Z,12.70
2022-10-17T12:54:15.464Z,17.87
2022-10-17T12:56:49.499Z,11.13
2022-10-17T12:59:26.247Z,12.97
2022-10-17T13:02:03.379Z,14.07
2022-10-17T13:04:31.372Z,10.80
2022-10-17T13:07:00.673Z,13.50
2022-10-17T13:09:31.667Z,10.93
2022-10-17T13:12:02.649Z,12.00
2022-10-17T13:14:31.644Z,12.93
2022-10-17T13:17:04.362Z,16.33
2022-10-17T13:19:42.956Z,12.90
2022-10-17T13:22:20.346Z,11.87
2022-10-17T13:24:48.837Z,13.33
2022-10-17T13:27:28.046Z,12.50
2022-10-17T13:29:56.808Z,13.63
2022-10-17T13:32:25.313Z,16.90
2022-10-17T13:35:17.206Z,14.77
2022-10-17T13:37:50.269Z,13.10
2022-10-17T13:40:49.506Z,13.77
2022-10-17T13:43:17.894Z,12.63
2022-10-17T13:46:25.319Z,16.03
2022-10-17T13:48:53.306Z,15.10
2022-10-17T13:51:20.256Z,13.27
2022-10-17T13:53:47.071Z,14.13
2022-10-17T13:56:29.129Z,14.13
2022-10-17T13:58:59.782Z,14.07
2022-10-17T14:01:29.156Z,13.47
2022-10-17T14:04:07.824Z,12.40
2022-10-17T14:06:44.977Z,15.73
2022-10-17T14:09:29.909Z,12.97
2022-10-17T14:12:01.646Z,14.10
2022-10-17T14:14:32.177Z,15.07
2022-10-17T14:17:14.758Z,15.50
2022-10-17T14:19:41.598Z,18.23
2022-10-17T14:22:17.763Z,16.30
2022-10-17T14:24:45.620Z,16.07
2022-10-17T14:27:30.186Z,14.87
2022-10-17T14:30:02.845Z,15.07
2022-10-17T14:35:19.132Z,19.63
2022-10-17T14:38:03.302Z,14.87
2022-10-17T14:40:32.423Z,16.73
2022-10-17T14:43:03.028Z,18.37
2022-10-17T14:45:37.216Z,14.80
2022-10-17T14:48:22.033Z,12.67
2022-10-17T14:51:08.357Z,14.43
2022-10-17T14:53:36.121Z,13.93
2022-10-17T14:56:06.152Z,16.17
2022-10-17T14:58:33.820Z,16.70
2022-10-17T15:01:01.878Z,15.57
2022-10-17T15:03:29.093Z,15.53
2022-10-17T15:05:56.345Z,15.97
2022-10-17T15:08:27.432Z,14.80
2022-10-17T15:10:54.204Z,11.63
2022-10-17T15:13:30.423Z,14.77
2022-10-17T15:16:01.839Z,14.97
2022-10-17T15:18:32.322Z,17.80
2022-10-17T15:21:04.870Z,14.40
2022-10-17T15:23:33.450Z,13.17
2022-10-17T15:26:01.093Z,15.87
2022-10-17T15:28:27.911Z,13.80
2022-10-17T15:30:54.778Z,16.07
2022-10-17T15:33:24.427Z,14.03
2022-10-17T15:35:52.484Z,14.10
2022-10-17T15:38:19.234Z,14.07
2022-10-17T15:40:48.895Z,15.93
2022-10-17T15:43:19.927Z,15.30
2022-10-17T15:45:47.425Z,14.90
2022-10-17T15:48:24.203Z,13.67
2022-10-17T15:50:51.020Z,16.97
2022-10-17T15:53:17.774Z,14.27
2022-10-17T15:55:44.526Z,18.43
2022-10-17T15:58:16.711Z,14.27
2022-10-17T16:00:44.044Z,16.47
2022-10-17T16:03:10.849Z,14.10
2022-10-17T16:05:40.343Z,14.67
2022-10-17T16:08:07.057Z,16.97
2022-10-17T16:10:34.757Z,17.13
2022-10-17T16:13:02.147Z,16.57
2022-10-17T16:15:28.902Z,13.70
2022-10-17T16:17:57.198Z,14.37
2022-10-17T16:20:25.403Z,16.47
2022-10-17T16:22:59.614Z,17.57
2022-10-17T16:25:28.294Z,15.43
2022-10-17T16:27:57.119Z,15.50
2022-10-17T16:30:26.055Z,17.37
2022-10-17T16:32:54.147Z,15.37
2022-10-17T16:35:25.368Z,15.87
2022-10-17T16:37:52.279Z,15.93
2022-10-17T16:40:19.392Z,15.93
2022-10-17T16:42:46.340Z,19.13
2022-10-17T16:45:21.723Z,16.33
2022-10-17T16:47:49.212Z,18.10
2022-10-17T16:50:16.098Z,16.07
2022-10-17T16:52:43.016Z,17.10
2022-10-17T16:55:10.410Z,17.20
2022-10-17T16:57:37.237Z,17.23
2022-10-17T17:00:06.183Z,20.53
2022-10-17T17:02:33.291Z,19.63
2022-10-17T17:05:00.390Z,17.83
2022-10-17T17:07:29.527Z,19.93
2022-10-17T17:09:56.713Z,15.53
2022-10-17T17:12:23.733Z,19.73
2022-10-17T17:14:50.625Z,16.90
2022-10-17T17:17:30.264Z,17.53
2022-10-17T17:20:04.663Z,20.17
2022-10-17T17:22:31.426Z,19.07
2022-10-17T17:25:00.168Z,16.10
2022-10-17T17:27:30.326Z,17.03
2022-10-17T17:29:57.289Z,19.07
2022-10-17T17:32:24.029Z,18.00
2022-10-17T17:34:50.817Z,18.23
2022-10-17T17:37:19.978Z,17.50
2022-10-17T17:39:46.694Z,21.13
2022-10-17T17:42:13.650Z,17.17
2022-10-17T17:44:40.382Z,20.13
2022-10-17T17:47:07.123Z,19.93
2022-10-17T17:49:33.863Z,18.43
2022-10-17T17:54:28.220Z,18.47
2022-10-17T17:56:57.752Z,21.00
2022-10-17T17:59:27.391Z,17.97
2022-10-17T18:01:54.276Z,17.93
2022-10-17T18:04:21.158Z,19.57
2022-10-17T18:06:47.933Z,18.00
2022-10-17T18:09:14.683Z,21.03
2022-10-17T18:11:44.140Z,19.57
2022-10-17T18:14:13.211Z,19.53
2022-10-17T18:16:40.264Z,17.83
2022-10-17T18:19:11.672Z,19.20
2022-10-17T18:21:38.408Z,19.80
2022-10-17T18:24:05.839Z,20.50
2022-10-17T18:26:33.204Z,20.40
2022-10-17T18:28:59.940Z,20.63
2022-10-17T18:31:35.482Z,18.83
2022-10-17T18:34:04.032Z,19.53
2022-10-17T18:36:34.024Z,21.00
2022-10-17T18:39:01.515Z,23.37
2022-10-17T18:41:28.262Z,22.27
2022-10-17T18:43:58.474Z,23.73
2022-10-17T18:46:27.674Z,19.63
2022-10-17T18:48:55.083Z,22.33
2022-10-17T18:51:23.818Z,23.03
2022-10-17T18:53:53.747Z,22.70
2022-10-17T18:56:21.509Z,25.20
2022-10-17T18:58:48.462Z,24.67
2022-10-17T19:01:17.970Z,25.37
2022-10-17T19:03:46.889Z,25.27
2022-10-17T19:06:21.231Z,19.87
2022-10-17T19:08:48.733Z,23.60
2022-10-17T19:11:17.019Z,23.73
2022-10-17T19:16:15.972Z,22.73
2022-10-17T19:18:43.050Z,23.53
2022-10-17T19:21:11.525Z,23.40
2022-10-17T19:23:38.687Z,21.23
2022-10-17T19:26:11.143Z,27.00
2022-10-17T19:28:39.922Z,21.47
2022-10-17T19:31:06.754Z,21.83
2022-10-17T19:33:34.604Z,24.37
2022-10-17T19:36:04.911Z,23.47
2022-10-17T19:38:32.280Z,26.57
2022-10-17T19:43:27.251Z,22.17
2022-10-17T19:46:00.343Z,23.13
2022-10-17T19:48:27.801Z,26.87
2022-10-17T19:50:54.533Z,25.43
2022-10-17T19:53:23.885Z,22.97
2022-10-17T19:55:51.183Z,22.97
2022-10-17T19:58:17.968Z,21.13
2022-10-17T20:00:52.906Z,22.67
2022-10-17T20:03:19.854Z,25.07
2022-10-17T20:05:46.639Z,28.17
2022-10-17T20:08:14.482Z,23.53
2022-10-17T20:10:50.929Z,27.00
2022-10-17T20:13:17.652Z,26.93
2022-10-17T20:15:57.608Z,32.20
2022-10-17T20:18:25.504Z,25.43
2022-10-17T20:20:52.357Z,23.97
2022-10-17T20:23:19.223Z,26.77
2022-10-17T20:25:46.166Z,27.13
2022-10-17T20:28:12.940Z,25.47
2022-10-17T20:30:45.473Z,26.53
2022-10-17T20:33:13.858Z,25.23
2022-10-17T20:38:11.861Z,29.80
2022-10-17T20:40:39.748Z,25.53
2022-10-17T20:43:08.013Z,29.50
2022-10-17T20:45:50.777Z,25.10
2022-10-17T20:48:18.963Z,31.47
2022-10-17T20:50:45.658Z,24.47
2022-10-17T20:56:08.957Z,25.67
2022-10-17T20:58:35.948Z,24.03
2022-10-17T21:01:09.741Z,27.43
2022-10-17T21:03:39.941Z,24.07
2022-10-17T21:06:11.235Z,24.60
2022-10-17T21:08:41.050Z,22.57
2022-10-17T21:11:15.274Z,22.87
2022-10-17T21:13:42.526Z,24.30
2022-10-17T21:16:11.556Z,22.70
2022-10-17T21:18:39.044Z,21.27
2022-10-17T21:21:19.924Z,24.37
2022-10-17T21:23:48.816Z,24.17
2022-10-17T21:26:16.780Z,23.40
2022-10-17T21:28:47.519Z,21.83
2022-10-17T21:31:17.229Z,23.10
2022-10-17T21:33:49.232Z,19.00
2022-10-17T21:36:17.549Z,19.47
2022-10-17T21:38:49.256Z,21.87
2022-10-17T21:41:19.437Z,22.80
2022-10-17T21:43:46.768Z,21.27
2022-10-17T21:46:15.636Z,23.17
2022-10-17T21:48:42.781Z,23.60
2022-10-17T21:51:12.717Z,20.17
2022-10-17T21:53:39.719Z,21.23
2022-10-17T21:56:09.903Z,25.17
2022-10-17T21:58:38.503Z,21.93
2022-10-17T22:01:23.593Z,27.07
2022-10-17T22:03:57.724Z,22.40
2022-10-17T22:06:43.251Z,27.00
2022-10-17T22:09:16.280Z,21.77
2022-10-17T22:11:46.695Z,25.87
2022-10-17T22:14:16.310Z,20.37
2022-10-17T22:16:44.993Z,20.60
2022-10-17T22:19:12.574Z,26.03
2022-10-17T22:21:39.476Z,24.23
2022-10-17T22:24:10.699Z,21.90
2022-10-17T22:26:38.403Z,22.40
2022-10-17T22:29:10.140Z,26.37
2022-10-17T22:31:37.450Z,22.43
2022-10-17T22:34:05.604Z,22.57
2022-10-17T22:36:33.379Z,24.23
2022-10-17T22:39:00.090Z,21.57
2022-10-17T22:41:26.826Z,24.00
2022-10-17T22:43:53.560Z,25.83
2022-10-17T22:46:20.356Z,24.07
2022-10-17T22:48:47.233Z,22.60
2022-10-17T22:51:14.557Z,29.13
2022-10-17T22:53:41.603Z,27.60
2022-10-17T22:56:15.095Z,24.43
2022-10-17T22:58:42.000Z,22.20
2022-10-17T23:01:13.274Z,22.30
2022-10-17T23:03:40.846Z,25.40
2022-10-17T23:06:07.668Z,25.63
2022-10-17T23:08:35.140Z,21.87
2022-10-17T23:11:01.904Z,22.90
2022-10-17T23:13:28.605Z,25.33
2022-10-17T23:15:57.102Z,23.30
2022-10-17T23:18:26.000Z,25.43
2022-10-17T23:20:54.693Z,24.10
2022-10-17T23:23:22.352Z,24.67
2022-10-17T23:25:49.915Z,24.87
2022-10-17T23:28:16.949Z,25.53
2022-10-17T23:30:44.136Z,23.53
2022-10-17T23:33:12.945Z,23.40
2022-10-17T23:35:40.443Z,25.37
2022-10-17T23:38:07.391Z,20.30
2022-10-17T23:40:35.344Z,21.70
2022-10-17T23:43:02.768Z,22.97
2022-10-17T23:45:33.394Z,19.10
2022-10-17T23:48:03.107Z,20.17
2022-10-17T23:50:29.919Z,20.47
2022-10-17T23:52:56.810Z,19.97
2022-10-17T23:55:23.637Z,18.13
2022-10-17T23:57:50.322Z,19.37
